CMP134 MPTO-TNCM
Flight info
| Callsign | CMP134 |
|---|---|
| Flight time | N/A |
| Altitude | 35000 |
| Route | REMAL1B REMAL A574 PONPO UL335 SCAPA L335 MLIZA DCT GOUDA |
| Aircraft | B738/M-SDE2E3FGHIRWXY/LB1 |
Departure
| Time | 2026-05-04 09:51 |
|---|---|
| Airport | Tocumen International Airport (MPTO) |
Arrival
| Time | N/A |
|---|---|
| Airport | Princess Juliana International Airport (TNCM) |
| Time | Latitude | Longitude | Altitude | Speed | Heading |
|---|---|---|---|---|---|
| 2026-05-04 09:43 | 9.06697 | -79.38454 | 43 ft | 1 kts | 357° |
| 2026-05-04 09:43 | 9.06687 | -79.38455 | 42 ft | 1 kts | 24° |
| 2026-05-04 09:43 | 9.06679 | -79.38459 | 42 ft | 1 kts | 31° |
| 2026-05-04 09:43 | 9.06678 | -79.38459 | 43 ft | 0 kts | 32° |
| 2026-05-04 09:46 | 9.06838 | -79.38386 | 45 ft | 8 kts | 348° |
| 2026-05-04 09:46 | 9.06883 | -79.38413 | 44 ft | 8 kts | 306° |
| 2026-05-04 09:46 | 9.06912 | -79.38456 | 46 ft | 7 kts | 313° |
| 2026-05-04 09:47 | 9.06958 | -79.38465 | 46 ft | 7 kts | 21° |
| 2026-05-04 09:47 | 9.07002 | -79.38443 | 46 ft | 7 kts | 28° |
| 2026-05-04 09:49 | 9.07244 | -79.38577 | 45 ft | 8 kts | 294° |
| 2026-05-04 09:49 | 9.07258 | -79.38630 | 47 ft | 7 kts | 282° |
| 2026-05-04 09:49 | 9.07268 | -79.38676 | 46 ft | 7 kts | 283° |
| 2026-05-04 09:51 | 9.11020 | -79.36453 | 1757 ft | 204 kts | 47° |
| 2026-05-04 09:51 | 9.11569 | -79.35052 | 2199 ft | 232 kts | 90° |
| 2026-05-04 09:51 | 9.11123 | -79.33460 | 3050 ft | 240 kts | 110° |
| 2026-05-04 09:51 | 9.10478 | -79.31859 | 3767 ft | 250 kts | 109° |
| 2026-05-04 09:52 | 9.09859 | -79.30217 | 4511 ft | 255 kts | 108° |
| 2026-05-04 09:52 | 9.09263 | -79.28498 | 5309 ft | 256 kts | 107° |
| 2026-05-04 09:52 | 9.08710 | -79.26799 | 6083 ft | 258 kts | 106° |
| 2026-05-04 09:52 | 9.08170 | -79.25053 | 6644 ft | 262 kts | 105° |
| 2026-05-04 09:53 | 9.07639 | -79.23269 | 6940 ft | 262 kts | 105° |
| 2026-05-04 09:53 | 9.07122 | -79.21498 | 6958 ft | 263 kts | 105° |
| 2026-05-04 09:53 | 9.06607 | -79.19721 | 6971 ft | 263 kts | 104° |
| 2026-05-04 09:53 | 9.06096 | -79.17950 | 6983 ft | 263 kts | 104° |
| 2026-05-04 09:54 | 9.05704 | -79.16145 | 6987 ft | 265 kts | 94° |
| 2026-05-04 09:54 | 9.05627 | -79.14244 | 7269 ft | 275 kts | 90° |
| 2026-05-04 09:54 | 9.05617 | -79.12332 | 7901 ft | 275 kts | 89° |
| 2026-05-04 09:54 | 9.05609 | -79.10370 | 8555 ft | 275 kts | 90° |
| 2026-05-04 09:55 | 9.05594 | -79.08421 | 9242 ft | 279 kts | 90° |
| 2026-05-04 09:55 | 9.05571 | -79.06511 | 9948 ft | 281 kts | 90° |
| 2026-05-04 09:55 | 9.05542 | -79.04517 | 10608 ft | 284 kts | 91° |
| 2026-05-04 09:55 | 9.05507 | -79.02513 | 11243 ft | 287 kts | 91° |
| 2026-05-04 09:56 | 9.05469 | -79.00470 | 11871 ft | 292 kts | 91° |
| 2026-05-04 09:56 | 9.05428 | -78.98408 | 12495 ft | 296 kts | 91° |
| 2026-05-04 09:56 | 9.05386 | -78.96309 | 13118 ft | 300 kts | 91° |
| 2026-05-04 09:56 | 9.05342 | -78.94190 | 13728 ft | 304 kts | 91° |
| 2026-05-04 09:57 | 9.05298 | -78.92032 | 14290 ft | 308 kts | 91° |
| 2026-05-04 09:57 | 9.05253 | -78.89860 | 14875 ft | 310 kts | 91° |
| 2026-05-04 09:57 | 9.05209 | -78.87800 | 15421 ft | 313 kts | 91° |
| 2026-05-04 09:57 | 9.05163 | -78.85589 | 15989 ft | 316 kts | 91° |
| 2026-05-04 09:58 | 9.05123 | -78.83358 | 16549 ft | 319 kts | 89° |
| 2026-05-04 09:58 | 9.05491 | -78.81135 | 16914 ft | 330 kts | 72° |
| 2026-05-04 09:58 | 9.06264 | -78.78875 | 17049 ft | 347 kts | 70° |
| 2026-05-04 10:00 | 9.12620 | -78.61155 | 19177 ft | 399 kts | 71° |
| 2026-05-04 10:00 | 9.13550 | -78.58502 | 19522 ft | 403 kts | 71° |
| 2026-05-04 10:02 | 9.20273 | -78.39275 | 21989 ft | 424 kts | 71° |
| 2026-05-04 10:04 | 9.27330 | -78.19068 | 24071 ft | 443 kts | 70° |
| 2026-05-04 10:04 | 9.28402 | -78.16168 | 24323 ft | 445 kts | 69° |
| 2026-05-04 10:04 | 9.29523 | -78.13243 | 24593 ft | 447 kts | 69° |
| 2026-05-04 10:04 | 9.30674 | -78.10277 | 24866 ft | 448 kts | 69° |
| 2026-05-04 10:05 | 9.31806 | -78.07360 | 25124 ft | 450 kts | 69° |
| 2026-05-04 10:05 | 9.32945 | -78.04409 | 25385 ft | 452 kts | 69° |
| 2026-05-04 10:05 | 9.34088 | -78.01432 | 25634 ft | 454 kts | 69° |
| 2026-05-04 10:05 | 9.35227 | -77.98453 | 25892 ft | 455 kts | 69° |
| 2026-05-04 10:06 | 9.36373 | -77.95449 | 26133 ft | 457 kts | 69° |
| 2026-05-04 10:06 | 9.37516 | -77.92450 | 26378 ft | 458 kts | 69° |
| 2026-05-04 10:06 | 9.38668 | -77.89423 | 26605 ft | 461 kts | 69° |
| 2026-05-04 10:08 | 9.45644 | -77.71088 | 27987 ft | 470 kts | 69° |
| 2026-05-04 10:08 | 9.46817 | -77.68005 | 28205 ft | 471 kts | 69° |
| 2026-05-04 10:08 | 9.47998 | -77.64896 | 28413 ft | 472 kts | 69° |
| 2026-05-04 10:08 | 9.49165 | -77.61824 | 28639 ft | 473 kts | 69° |
| 2026-05-04 10:09 | 9.50363 | -77.58670 | 28833 ft | 475 kts | 69° |
| 2026-05-04 10:09 | 9.51538 | -77.55575 | 28991 ft | 477 kts | 68° |
| 2026-05-04 10:09 | 9.52735 | -77.52420 | 29170 ft | 479 kts | 69° |
| 2026-05-04 10:09 | 9.53935 | -77.49259 | 29354 ft | 480 kts | 68° |
| 2026-05-04 10:10 | 9.55132 | -77.46103 | 29563 ft | 481 kts | 68° |
| 2026-05-04 10:10 | 9.56336 | -77.42927 | 29747 ft | 483 kts | 69° |
| 2026-05-04 10:10 | 9.57523 | -77.39748 | 29917 ft | 484 kts | 69° |
| 2026-05-04 10:10 | 9.58646 | -77.36523 | 30098 ft | 485 kts | 71° |
| 2026-05-04 10:11 | 9.59730 | -77.33285 | 30339 ft | 483 kts | 71° |
| 2026-05-04 10:11 | 9.60791 | -77.30069 | 30582 ft | 482 kts | 71° |
| 2026-05-04 10:11 | 9.61842 | -77.26887 | 30815 ft | 481 kts | 70° |
| 2026-05-04 10:11 | 9.62922 | -77.23634 | 31009 ft | 482 kts | 70° |
| 2026-05-04 10:12 | 9.63985 | -77.20456 | 31193 ft | 482 kts | 70° |
| 2026-05-04 10:12 | 9.65067 | -77.17237 | 31321 ft | 484 kts | 70° |
| 2026-05-04 10:12 | 9.66158 | -77.14000 | 31534 ft | 484 kts | 70° |
| 2026-05-04 10:12 | 9.67247 | -77.10773 | 31822 ft | 482 kts | 70° |
| 2026-05-04 10:13 | 9.68330 | -77.07566 | 32081 ft | 481 kts | 70° |
| 2026-05-04 10:13 | 9.69413 | -77.04354 | 32316 ft | 480 kts | 70° |
| 2026-05-04 10:13 | 9.70492 | -77.01155 | 32506 ft | 481 kts | 70° |
| 2026-05-04 10:13 | 9.71574 | -76.97943 | 32752 ft | 480 kts | 70° |
| 2026-05-04 10:14 | 9.72650 | -76.94748 | 32977 ft | 480 kts | 70° |
| 2026-05-04 10:14 | 9.73728 | -76.91545 | 33251 ft | 478 kts | 70° |
| 2026-05-04 10:16 | 9.81202 | -76.69313 | 34762 ft | 475 kts | 71° |
| 2026-05-04 10:16 | 9.82268 | -76.66136 | 34943 ft | 475 kts | 71° |
| 2026-05-04 10:16 | 9.83329 | -76.62974 | 35149 ft | 474 kts | 71° |
| 2026-05-04 10:16 | 9.84393 | -76.59801 | 35323 ft | 474 kts | 71° |
| 2026-05-04 10:17 | 9.85451 | -76.56646 | 35531 ft | 473 kts | 71° |
| 2026-05-04 10:17 | 9.86513 | -76.53480 | 35726 ft | 473 kts | 71° |
| 2026-05-04 10:19 | 9.93856 | -76.31548 | 36961 ft | 463 kts | 72° |
| 2026-05-04 10:19 | 9.94890 | -76.28456 | 36978 ft | 464 kts | 72° |
| 2026-05-04 10:19 | 9.96968 | -76.22234 | 36979 ft | 467 kts | 72° |
| 2026-05-04 10:20 | 9.99059 | -76.15972 | 36977 ft | 469 kts | 72° |
| 2026-05-04 10:20 | 10.01143 | -76.09727 | 36976 ft | 471 kts | 72° |
| 2026-05-04 10:21 | 10.03248 | -76.03416 | 36960 ft | 471 kts | 72° |
| 2026-05-04 10:21 | 10.05344 | -75.97126 | 36957 ft | 469 kts | 72° |
| 2026-05-04 10:22 | 10.08466 | -75.87750 | 36962 ft | 466 kts | 72° |
| 2026-05-04 10:23 | 10.10535 | -75.81529 | 36957 ft | 464 kts | 72° |
| 2026-05-04 10:25 | 10.18710 | -75.56907 | 36958 ft | 459 kts | 72° |
| 2026-05-04 10:25 | 10.20901 | -75.50819 | 36947 ft | 460 kts | 64° |
| 2026-05-04 10:26 | 10.23767 | -75.46264 | 36979 ft | 462 kts | 54° |
| 2026-05-04 10:26 | 10.27635 | -75.41038 | 36970 ft | 463 kts | 53° |
| 2026-05-04 10:27 | 10.31514 | -75.35802 | 36952 ft | 465 kts | 54° |
| 2026-05-04 10:27 | 10.35376 | -75.30519 | 36964 ft | 467 kts | 54° |
| 2026-05-04 10:28 | 10.39230 | -75.25205 | 36970 ft | 468 kts | 54° |
| 2026-05-04 10:28 | 10.43088 | -75.19874 | 36966 ft | 469 kts | 54° |
| 2026-05-04 10:29 | 10.46949 | -75.14538 | 36973 ft | 469 kts | 54° |
| 2026-05-04 10:29 | 10.50814 | -75.09195 | 36980 ft | 469 kts | 54° |
| 2026-05-04 10:30 | 10.54684 | -75.03844 | 36963 ft | 468 kts | 54° |
| 2026-05-04 10:30 | 10.58540 | -74.98511 | 36978 ft | 468 kts | 54° |
| 2026-05-04 10:31 | 10.62394 | -74.93176 | 36974 ft | 468 kts | 54° |
| 2026-05-04 10:32 | 10.75838 | -74.74550 | 36975 ft | 467 kts | 54° |
| 2026-05-04 10:33 | 10.79684 | -74.69215 | 36974 ft | 467 kts | 54° |
| 2026-05-04 10:33 | 10.83519 | -74.63894 | 36974 ft | 467 kts | 54° |
| 2026-05-04 10:34 | 10.87359 | -74.58561 | 36974 ft | 467 kts | 54° |
| 2026-05-04 10:34 | 10.91199 | -74.53228 | 36975 ft | 467 kts | 54° |
| 2026-05-04 10:35 | 10.95046 | -74.47881 | 36968 ft | 467 kts | 54° |
| 2026-05-04 10:35 | 10.98857 | -74.42581 | 36963 ft | 467 kts | 54° |
| 2026-05-04 10:36 | 11.02694 | -74.37243 | 36953 ft | 467 kts | 54° |
| 2026-05-04 10:36 | 11.06532 | -74.31902 | 36946 ft | 467 kts | 54° |
| 2026-05-04 10:37 | 11.10365 | -74.26564 | 36945 ft | 467 kts | 54° |
| 2026-05-04 10:37 | 11.14199 | -74.21222 | 36947 ft | 467 kts | 54° |
| 2026-05-04 10:39 | 11.27612 | -74.02512 | 37024 ft | 467 kts | 54° |
| 2026-05-04 10:40 | 11.31446 | -73.97157 | 37022 ft | 468 kts | 54° |
| 2026-05-04 10:40 | 11.35283 | -73.91796 | 37025 ft | 468 kts | 54° |
| 2026-05-04 10:41 | 11.39123 | -73.86428 | 37024 ft | 469 kts | 54° |
| 2026-05-04 10:41 | 11.42964 | -73.81056 | 37024 ft | 469 kts | 54° |
| 2026-05-04 10:42 | 11.46807 | -73.75677 | 37014 ft | 469 kts | 54° |
| 2026-05-04 10:42 | 11.50653 | -73.70292 | 37013 ft | 470 kts | 54° |
| 2026-05-04 10:43 | 11.54475 | -73.64938 | 37016 ft | 470 kts | 54° |
| 2026-05-04 10:45 | 11.69896 | -73.43306 | 37010 ft | 473 kts | 53° |
| 2026-05-04 10:45 | 11.73765 | -73.37871 | 37015 ft | 474 kts | 53° |
| 2026-05-04 10:46 | 11.77640 | -73.32424 | 37013 ft | 475 kts | 53° |
| 2026-05-04 10:46 | 11.81521 | -73.26966 | 37010 ft | 475 kts | 53° |
| 2026-05-04 10:47 | 11.85402 | -73.21505 | 37011 ft | 475 kts | 53° |
| 2026-05-04 10:47 | 11.89284 | -73.16041 | 37017 ft | 475 kts | 53° |
| 2026-05-04 10:49 | 12.04769 | -72.94210 | 37020 ft | 473 kts | 52° |
| 2026-05-04 10:50 | 12.08596 | -72.88808 | 37025 ft | 472 kts | 52° |
| 2026-05-04 10:52 | 12.23957 | -72.67091 | 37021 ft | 470 kts | 52° |
| 2026-05-04 10:52 | 12.27783 | -72.61675 | 37024 ft | 470 kts | 52° |
| 2026-05-04 10:54 | 12.43087 | -72.39978 | 37026 ft | 472 kts | 52° |
| 2026-05-04 10:56 | 12.58467 | -72.18120 | 37013 ft | 473 kts | 52° |
| 2026-05-04 10:57 | 12.62313 | -72.12647 | 37034 ft | 473 kts | 52° |
| 2026-05-04 10:57 | 12.66155 | -72.07175 | 37042 ft | 473 kts | 52° |
| 2026-05-04 10:58 | 12.69996 | -72.01703 | 37038 ft | 473 kts | 51° |
| 2026-05-04 10:58 | 12.73806 | -71.96269 | 37044 ft | 473 kts | 52° |
| 2026-05-04 10:59 | 12.77648 | -71.90788 | 37034 ft | 472 kts | 52° |
| 2026-05-04 10:59 | 12.81468 | -71.85335 | 37045 ft | 472 kts | 52° |
| 2026-05-04 11:00 | 12.85301 | -71.79880 | 37052 ft | 471 kts | 52° |
| 2026-05-04 11:02 | 13.00588 | -71.58128 | 37052 ft | 470 kts | 52° |
| 2026-05-04 11:05 | 13.29204 | -71.17459 | 37048 ft | 467 kts | 52° |
| 2026-05-04 11:06 | 13.33009 | -71.12054 | 37059 ft | 467 kts | 52° |
| 2026-05-04 11:06 | 13.36786 | -71.06683 | 37061 ft | 467 kts | 51° |
| 2026-05-04 11:10 | 13.62663 | -70.69637 | 37059 ft | 467 kts | 52° |
| 2026-05-04 11:12 | 13.77765 | -70.47928 | 37061 ft | 467 kts | 52° |
| 2026-05-04 11:12 | 13.81537 | -70.42499 | 37076 ft | 466 kts | 52° |
| 2026-05-04 11:13 | 13.85310 | -70.37074 | 37075 ft | 466 kts | 52° |
| 2026-05-04 11:13 | 13.89092 | -70.31661 | 37063 ft | 466 kts | 52° |
| 2026-05-04 11:14 | 13.89728 | -70.30749 | 37064 ft | 466 kts | 52° |
| 2026-05-04 11:16 | 14.07925 | -70.04603 | 37068 ft | 465 kts | 52° |
| 2026-05-04 11:16 | 14.11681 | -69.99186 | 37088 ft | 465 kts | 52° |
| 2026-05-04 11:17 | 14.15407 | -69.93742 | 37069 ft | 465 kts | 52° |
| 2026-05-04 11:19 | 14.30424 | -69.72027 | 37081 ft | 466 kts | 51° |
| 2026-05-04 11:19 | 14.34165 | -69.66617 | 37079 ft | 467 kts | 52° |
| 2026-05-04 11:20 | 14.37940 | -69.61154 | 37098 ft | 467 kts | 51° |
| 2026-05-04 11:20 | 14.41712 | -69.55692 | 37082 ft | 467 kts | 51° |
| 2026-05-04 11:22 | 14.56782 | -69.33832 | 37091 ft | 468 kts | 51° |
| 2026-05-04 11:23 | 14.60551 | -69.28354 | 37094 ft | 468 kts | 51° |
| 2026-05-04 11:25 | 14.73713 | -69.09160 | 37101 ft | 467 kts | 51° |
| 2026-05-04 11:25 | 14.77437 | -69.03718 | 37093 ft | 467 kts | 51° |
| 2026-05-04 11:27 | 14.94292 | -68.79095 | 37097 ft | 465 kts | 52° |
| 2026-05-04 11:28 | 14.98022 | -68.73629 | 37104 ft | 465 kts | 52° |
| 2026-05-04 11:28 | 15.01749 | -68.68165 | 37096 ft | 465 kts | 52° |
| 2026-05-04 11:29 | 15.05474 | -68.62704 | 37111 ft | 464 kts | 52° |
| 2026-05-04 11:29 | 15.09196 | -68.57245 | 37111 ft | 464 kts | 52° |
| 2026-05-04 11:33 | 15.35389 | -68.19273 | 37115 ft | 463 kts | 51° |
| 2026-05-04 11:33 | 15.39155 | -68.13864 | 37116 ft | 463 kts | 51° |
| 2026-05-04 11:34 | 15.42918 | -68.08453 | 37119 ft | 463 kts | 51° |